Time;durP1;ratioP1;P1;durP2;ratioP2;P2;SDS_P1;SDS_P2;PMS_P1;PMS_P2;Temp;Humidity;BMP_temperature;BMP_pressure;BME280_temperature;BME280_humidity;BME280_pressure;Samples;Min_cycle;Max_cycle;Signal;HPM_P1;HPM_P2
2023/07/02 00:00:25;;;;;;;5.05;4.32;;;;;;;19.22;71.19;94282.97;5115678;28;20199;-67
2023/07/02 00:02:53;;;;;;;6.10;4.43;;;;;;;19.20;71.47;94274.19;5115271;28;20206;-67
2023/07/02 00:05:26;;;;;;;5.40;4.85;;;;;;;19.17;71.88;94277.88;5115232;28;20204;-67
2023/07/02 00:07:54;;;;;;;7.00;4.60;;;;;;;19.13;71.97;94270.75;5115957;28;20190;-67
2023/07/02 00:10:21;;;;;;;6.25;5.07;;;;;;;19.07;72.57;94270.47;5114671;28;20246;-67
2023/07/02 00:12:49;;;;;;;6.20;4.72;;;;;;;19.07;72.58;94270.47;5116055;28;20204;-67
2023/07/02 00:15:17;;;;;;;5.20;4.63;;;;;;;19.06;72.83;94260.47;5115384;28;20226;-67
2023/07/02 00:17:45;;;;;;;5.30;4.80;;;;;;;19.09;72.30;94258.84;5115722;28;20270;-67
2023/07/02 00:20:16;;;;;;;6.13;4.95;;;;;;;19.09;72.44;94253.25;5115650;28;20272;-67
2023/07/02 00:22:46;;;;;;;6.18;4.78;;;;;;;18.92;72.55;94250.38;5114496;28;20538;-67
2023/07/02 00:25:15;;;;;;;5.43;4.60;;;;;;;18.87;73.39;94250.06;5115894;28;20175;-67
2023/07/02 00:27:42;;;;;;;6.18;4.70;;;;;;;18.88;73.69;94268.41;5115404;28;20240;-67
2023/07/02 00:30:11;;;;;;;4.97;4.47;;;;;;;18.89;73.71;94261.63;5114718;28;20202;-67
2023/07/02 00:32:37;;;;;;;5.35;4.50;;;;;;;18.91;73.85;94267.56;5115736;28;20179;-67
2023/07/02 00:35:06;;;;;;;7.97;5.22;;;;;;;18.93;73.11;94276.31;5114988;28;20203;-67
2023/07/02 00:37:34;;;;;;;5.65;4.50;;;;;;;18.93;72.69;94271.50;5114928;28;20219;-67
2023/07/02 00:40:08;;;;;;;6.72;5.13;;;;;;;18.97;72.74;94277.03;5114563;28;20222;-67
2023/07/02 00:42:39;;;;;;;7.40;5.35;;;;;;;19.01;72.68;94283.34;5115497;28;20191;-67
2023/07/02 00:45:08;;;;;;;7.50;4.82;;;;;;;19.01;72.98;94286.13;5115558;28;20200;-67
2023/07/02 00:47:38;;;;;;;5.22;4.72;;;;;;;19.03;73.29;94286.53;5115184;28;20243;-67
2023/07/02 00:50:09;;;;;;;6.47;4.85;;;;;;;19.06;72.67;94284.84;5115350;28;20200;-67
2023/07/02 00:52:39;;;;;;;6.20;5.38;;;;;;;19.04;72.47;94299.25;5115350;28;20183;-67
2023/07/02 00:55:09;;;;;;;8.07;4.78;;;;;;;19.05;72.17;94283.28;5115495;28;20179;-67
2023/07/02 00:57:40;;;;;;;7.22;5.45;;;;;;;19.05;71.69;94280.50;5114276;28;20536;-67
2023/07/02 01:00:09;;;;;;;5.47;4.55;;;;;;;19.04;71.83;94276.13;5115430;28;20208;-67
2023/07/02 01:02:43;;;;;;;5.90;4.45;;;;;;;19.02;71.50;94276.53;5115295;28;20231;-67
2023/07/02 01:05:15;;;;;;;6.15;4.85;;;;;;;18.98;71.59;94264.63;5115386;28;20198;-67
2023/07/02 01:07:42;;;;;;;6.88;5.05;;;;;;;18.94;72.02;94269.50;5115350;28;20203;-67
2023/07/02 01:10:10;;;;;;;6.15;5.05;;;;;;;18.93;71.59;94277.09;5115089;28;20518;-67
2023/07/02 01:12:37;;;;;;;5.15;4.50;;;;;;;18.95;71.92;94265.47;5114517;28;20200;-67
2023/07/02 01:15:07;;;;;;;5.18;4.72;;;;;;;18.95;71.93;94268.28;5114636;28;20215;-67
2023/07/02 01:17:41;;;;;;;5.30;4.80;;;;;;;18.96;72.39;94258.69;5114926;28;20184;-67
2023/07/02 01:20:14;;;;;;;5.55;4.93;;;;;;;18.99;72.73;94258.63;5114239;28;20222;-68
2023/07/02 01:22:42;;;;;;;6.35;5.05;;;;;;;18.92;72.86;94253.19;5115219;28;20188;-68
2023/07/02 01:25:10;;;;;;;6.13;4.80;;;;;;;18.84;73.21;94228.56;5114829;28;20192;-68
2023/07/02 01:27:38;;;;;;;5.70;5.05;;;;;;;18.84;72.90;94229.34;5114071;28;20195;-68
2023/07/02 01:30:09;;;;;;;8.23;5.38;;;;;;;18.87;73.29;94236.88;5116085;28;20191;-68
2023/07/02 01:32:38;;;;;;;7.38;5.57;;;;;;;18.92;73.68;94239.22;5101274;28;20199;-67
2023/07/02 01:35:08;;;;;;;7.82;5.68;;;;;;;18.95;73.30;94235.56;5118575;28;20188;-67
2023/07/02 01:37:44;;;;;;;6.15;4.97;;;;;;;19.04;73.14;94240.59;5117872;28;20199;-67
2023/07/02 01:40:12;;;;;;;6.05;5.45;;;;;;;19.09;73.10;94234.47;5118349;27;20208;-67
2023/07/02 01:42:40;;;;;;;7.75;5.43;;;;;;;19.12;73.11;94232.84;5119154;28;20180;-67
2023/07/02 01:45:09;;;;;;;6.88;5.53;;;;;;;19.09;73.38;94247.66;5117562;28;20192;-67
2023/07/02 01:47:38;;;;;;;6.68;5.45;;;;;;;19.05;73.55;94246.94;5118219;28;20239;-67
2023/07/02 01:50:07;;;;;;;7.00;5.45;;;;;;;18.98;74.04;94243.06;5117628;28;20204;-67
2023/07/02 01:52:35;;;;;;;6.03;5.10;;;;;;;18.91;74.24;94248.78;5117874;28;20219;-67
2023/07/02 01:55:06;;;;;;;7.63;5.47;;;;;;;18.84;75.18;94239.75;5117075;28;20203;-67
2023/07/02 01:57:33;;;;;;;7.47;5.57;;;;;;;18.82;75.26;94240.19;5117557;28;20198;-67
2023/07/02 02:00:04;;;;;;;6.00;5.38;;;;;;;18.83;75.30;94229.78;5118238;28;20204;-68
2023/07/02 02:02:32;;;;;;;6.97;5.90;;;;;;;18.75;75.34;94217.97;5118020;28;20656;-67
2023/07/02 02:05:00;;;;;;;6.22;5.63;;;;;;;18.74;76.16;94219.19;5118356;28;20195;-68
2023/07/02 02:07:28;;;;;;;8.00;5.47;;;;;;;18.74;75.58;94225.56;5118172;28;20618;-67
2023/07/02 02:09:55;;;;;;;6.18;5.32;;;;;;;18.76;75.37;94213.94;5117822;28;20176;-67
2023/07/02 02:12:26;;;;;;;5.57;5.05;;;;;;;18.80;75.56;94231.41;5117280;28;20207;-67
2023/07/02 02:14:53;;;;;;;6.25;5.40;;;;;;;18.81;75.55;94232.22;5116875;28;20669;-67
2023/07/02 02:17:21;;;;;;;6.45;5.03;;;;;;;18.79;75.78;94234.66;5117743;28;20199;-67
2023/07/02 02:19:49;;;;;;;6.88;5.70;;;;;;;18.72;76.08;94214.00;5117129;28;20227;-67
2023/07/02 02:22:17;;;;;;;6.47;5.32;;;;;;;18.67;76.39;94211.69;5117861;28;20195;-67
2023/07/02 02:24:45;;;;;;;6.18;5.57;;;;;;;18.71;76.21;94211.66;5117909;28;20184;-67
2023/07/02 02:27:13;;;;;;;7.80;5.53;;;;;;;18.76;76.80;94222.31;5117541;28;20214;-67
2023/07/02 02:29:43;;;;;;;8.73;5.70;;;;;;;18.70;76.56;94204.44;5117115;28;20206;-67
2023/07/02 02:32:11;;;;;;;6.90;5.43;;;;;;;18.66;76.61;94195.34;5117830;28;20191;-67
2023/07/02 02:34:38;;;;;;;6.55;5.90;;;;;;;18.64;76.32;94200.56;5117574;28;20200;-67
2023/07/02 02:37:04;;;;;;;9.13;6.63;;;;;;;18.58;76.16;94194.66;5117321;28;20523;-67
2023/07/02 02:39:32;;;;;;;11.57;7.50;;;;;;;18.50;76.37;94190.44;5116957;28;20200;-67
2023/07/02 02:41:59;;;;;;;9.25;5.90;;;;;;;18.42;76.47;94198.16;5116443;28;20704;-67
2023/07/02 02:44:27;;;;;;;7.13;6.00;;;;;;;18.42;76.56;94200.16;5116966;28;20248;-67
2023/07/02 02:46:56;;;;;;;8.85;6.22;;;;;;;18.41;76.33;94209.72;5116878;28;20541;-67
2023/07/02 02:49:27;;;;;;;8.35;7.38;;;;;;;18.34;76.39;94227.41;5116945;28;20192;-67
2023/07/02 02:51:53;;;;;;;9.13;7.47;;;;;;;18.29;76.82;94230.66;5117527;28;20176;-67
2023/07/02 02:54:24;;;;;;;7.38;6.63;;;;;;;18.26;76.97;94226.72;5117117;28;20266;-67
2023/07/02 02:56:51;;;;;;;8.07;6.88;;;;;;;18.25;76.91;94229.91;5117271;28;20184;-67
2023/07/02 02:59:20;;;;;;;8.93;7.32;;;;;;;18.22;76.63;94237.13;5116863;28;20484;-67
2023/07/02 03:01:50;;;;;;;11.68;7.43;;;;;;;18.23;76.67;94229.56;5116949;28;20643;-67
2023/07/02 03:04:23;;;;;;;10.90;7.07;;;;;;;18.23;76.83;94222.00;5117336;28;20283;-67
2023/07/02 03:06:53;;;;;;;8.32;6.40;;;;;;;18.25;76.80;94218.75;5117047;28;20195;-67
2023/07/02 03:09:21;;;;;;;8.30;6.25;;;;;;;18.26;76.51;94220.31;5116200;28;20301;-67
2023/07/02 03:11:49;;;;;;;10.55;6.40;;;;;;;18.26;76.69;94214.75;5116084;28;20191;-67
2023/07/02 03:14:17;;;;;;;7.60;5.85;;;;;;;18.22;76.96;94214.03;5116011;28;20199;-67
2023/07/02 03:16:46;;;;;;;7.32;6.32;;;;;;;18.23;76.96;94215.63;5117077;28;20180;-67
2023/07/02 03:19:15;;;;;;;8.30;6.22;;;;;;;18.27;76.42;94230.31;5116925;28;20184;-67
2023/07/02 03:21:45;;;;;;;7.28;6.00;;;;;;;18.34;76.19;94246.94;5115887;28;20272;-67
2023/07/02 03:24:13;;;;;;;8.55;6.25;;;;;;;18.37;75.89;94248.06;5116387;28;20379;-67
2023/07/02 03:26:41;;;;;;;6.85;6.15;;;;;;;18.39;75.66;94251.25;5115884;28;20236;-67
2023/07/02 03:29:09;;;;;;;9.50;6.20;;;;;;;18.39;75.62;94251.25;5116092;28;20207;-67
2023/07/02 03:31:37;;;;;;;8.20;6.38;;;;;;;18.37;76.29;94257.22;5116618;28;20188;-67
2023/07/02 03:34:08;;;;;;;7.88;5.75;;;;;;;18.35;76.06;94256.88;5116215;28;20596;-67
2023/07/02 03:36:36;;;;;;;8.50;6.53;;;;;;;18.42;75.37;94250.41;5116628;28;20218;-66
2023/07/02 03:39:06;;;;;;;9.80;6.93;;;;;;;18.47;74.97;94256.28;5116420;28;20256;-67
2023/07/02 03:41:33;;;;;;;7.15;6.45;;;;;;;18.50;74.90;94258.22;5116161;28;20223;-67
2023/07/02 03:43:59;;;;;;;7.15;5.97;;;;;;;18.52;74.08;94252.25;5115157;28;20187;-66
2023/07/02 03:46:28;;;;;;;6.80;6.10;;;;;;;18.53;74.08;94246.22;5115331;28;20239;-66
2023/07/02 03:48:55;;;;;;;8.70;5.88;;;;;;;18.56;74.43;94235.44;5116187;28;20206;-67
2023/07/02 03:51:23;;;;;;;9.20;5.95;;;;;;;18.58;74.70;94235.78;5115491;28;20630;-67
2023/07/02 03:53:51;;;;;;;9.52;6.43;;;;;;;18.51;74.99;94231.09;5114883;28;20256;-67
2023/07/02 03:56:21;;;;;;;8.30;6.10;;;;;;;18.47;75.21;94235.94;5116123;28;20184;-66
2023/07/02 03:58:49;;;;;;;8.40;6.55;;;;;;;18.46;75.32;94240.75;5115127;28;20210;-67
2023/07/02 04:01:17;;;;;;;9.60;6.30;;;;;;;18.47;75.22;94241.53;5115539;28;20238;-67
2023/07/02 04:03:49;;;;;;;9.35;6.57;;;;;;;18.50;75.16;94237.91;5115191;28;20253;-67
2023/07/02 04:06:18;;;;;;;7.10;5.80;;;;;;;18.52;75.37;94235.47;5116056;28;20196;-67
2023/07/02 04:08:45;;;;;;;9.35;6.00;;;;;;;18.55;75.17;94236.63;5115869;28;20646;-67
2023/07/02 04:11:13;;;;;;;7.53;5.80;;;;;;;18.55;75.27;94245.00;5114697;28;20200;-67
2023/07/02 04:13:47;;;;;;;10.18;6.50;;;;;;;18.56;75.28;94250.19;5116049;28;20199;-67
2023/07/02 04:16:15;;;;;;;8.05;6.15;;;;;;;18.56;75.43;94255.75;5115910;28;20218;-67
2023/07/02 04:18:44;;;;;;;6.90;6.00;;;;;;;18.59;75.37;94266.09;5115500;28;20203;-67
2023/07/02 04:21:13;;;;;;;7.03;6.15;;;;;;;18.62;75.58;94273.59;5115580;28;20203;-67
2023/07/02 04:23:40;;;;;;;6.80;5.88;;;;;;;18.66;76.16;94265.94;5114771;28;20191;-67
2023/07/02 04:26:08;;;;;;;8.52;6.50;;;;;;;18.68;75.74;94274.69;5114650;28;20216;-67
2023/07/02 04:28:36;;;;;;;9.32;6.57;;;;;;;18.70;75.85;94274.25;5115694;28;20199;-67
2023/07/02 04:31:07;;;;;;;9.90;8.60;;;;;;;18.71;75.98;94281.47;5115607;28;20203;-67
2023/07/02 04:33:36;;;;;;;9.80;7.93;;;;;;;18.69;75.38;94287.44;5115296;28;20633;-67
2023/07/02 04:36:04;;;;;;;10.23;8.40;;;;;;;18.71;75.38;94289.84;5115595;28;20219;-67
2023/07/02 04:38:31;;;;;;;10.20;7.70;;;;;;;18.70;74.85;94299.41;5115630;28;20194;-67
2023/07/02 04:41:05;;;;;;;9.48;6.90;;;;;;;18.70;74.88;94296.59;5115028;28;20215;-68
2023/07/02 04:43:33;;;;;;;8.55;6.65;;;;;;;18.70;74.55;94297.41;5115602;28;20670;-67
2023/07/02 04:46:01;;;;;;;7.47;6.10;;;;;;;18.70;74.60;94310.56;5114383;28;20262;-67
2023/07/02 04:48:31;;;;;;;8.05;6.38;;;;;;;18.70;74.69;94297.41;5114524;28;20231;-67
2023/07/02 04:50:59;;;;;;;7.55;6.30;;;;;;;18.71;75.00;94301.81;5114672;28;20191;-67
2023/07/02 04:53:27;;;;;;;7.97;6.07;;;;;;;18.72;74.57;94303.38;5114831;28;20199;-68
2023/07/02 04:55:53;;;;;;;8.77;6.38;;;;;;;18.73;74.61;94299.38;5115449;28;20192;-67
2023/07/02 04:58:22;;;;;;;9.88;7.05;;;;;;;18.76;74.35;94311.72;5114183;28;20260;-68
2023/07/02 05:00:50;;;;;;;9.00;6.90;;;;;;;18.76;74.76;94306.91;5115079;28;20298;-68
2023/07/02 05:03:18;;;;;;;7.53;6.80;;;;;;;18.79;74.88;94302.47;5114999;28;20615;-68
2023/07/02 05:05:47;;;;;;;7.35;6.03;;;;;;;18.79;75.08;94308.06;5117488;28;20188;-68
2023/07/02 05:08:15;;;;;;;7.90;6.45;;;;;;;18.73;75.30;94312.56;5118421;28;20188;-68
2023/07/02 05:10:43;;;;;;;11.45;9.27;;;;;;;18.69;75.04;94309.00;5118304;28;20260;-68
2023/07/02 05:13:11;;;;;;;19.30;14.70;;;;;;;18.65;75.47;94320.22;5118513;28;20199;-68
2023/07/02 05:15:39;;;;;;;15.57;12.95;;;;;;;18.67;75.41;94314.22;5118471;28;20199;-72
2023/07/02 05:18:07;;;;;;;13.23;10.25;;;;;;;18.70;75.60;94316.97;5118317;28;20196;-68
2023/07/02 05:20:35;;;;;;;10.73;9.00;;;;;;;18.71;75.66;94315.00;5119114;28;20215;-67
2023/07/02 05:23:08;;;;;;;11.93;8.38;;;;;;;18.71;75.83;94312.19;5118520;28;20200;-67
2023/07/02 05:25:36;;;;;;;11.77;8.38;;;;;;;18.73;76.09;94318.13;5118407;28;20614;-67
2023/07/02 05:28:04;;;;;;;9.10;7.68;;;;;;;18.75;76.04;94319.31;5118733;28;20252;-67
2023/07/02 05:30:30;;;;;;;8.20;7.18;;;;;;;18.77;75.90;94318.88;5118114;28;20195;-67
2023/07/02 05:32:58;;;;;;;9.23;7.20;;;;;;;18.79;76.12;94308.06;5117969;28;20262;-67
2023/07/02 05:35:27;;;;;;;7.75;6.40;;;;;;;18.76;75.52;94315.28;5118615;28;20191;-67
2023/07/02 05:37:53;;;;;;;9.82;7.55;;;;;;;18.75;75.20;94321.31;5118177;28;20205;-67
2023/07/02 05:40:23;;;;;;;10.40;7.43;;;;;;;18.80;75.59;94332.00;5117815;28;20188;-67
2023/07/02 05:42:51;;;;;;;8.00;6.65;;;;;;;18.86;76.17;94326.72;5117898;28;20207;-67
2023/07/02 05:45:20;;;;;;;8.88;7.05;;;;;;;18.91;76.38;94324.22;5119133;27;20195;-67
2023/07/02 05:47:48;;;;;;;8.20;6.65;;;;;;;18.94;76.59;94337.34;5118605;28;20235;-67
2023/07/02 05:50:15;;;;;;;9.10;7.35;;;;;;;18.93;76.09;94338.56;5118450;28;20206;-68
2023/07/02 05:52:44;;;;;;;9.48;7.13;;;;;;;18.91;76.45;94337.41;5118086;28;20192;-68
2023/07/02 05:55:13;;;;;;;10.30;6.82;;;;;;;18.94;76.25;94339.34;5118469;28;20196;-67
2023/07/02 05:57:45;;;;;;;12.18;7.15;;;;;;;18.96;76.09;94339.72;5118202;28;20180;-67
2023/07/02 06:00:14;;;;;;;10.70;7.20;;;;;;;18.99;76.21;94347.25;5117401;28;20199;-66
2023/07/02 06:02:40;;;;;;;9.48;7.55;;;;;;;19.04;75.22;94332.00;5118062;28;20586;-66
2023/07/02 06:05:09;;;;;;;9.77;7.03;;;;;;;19.05;74.77;94337.16;5117453;28;20195;-66
2023/07/02 06:07:36;;;;;;;10.95;8.02;;;;;;;19.06;74.07;94333.16;5117382;28;20199;-68
2023/07/02 06:10:05;;;;;;;9.45;7.95;;;;;;;19.08;73.75;94333.53;5116953;28;20199;-65
2023/07/02 06:12:33;;;;;;;8.88;7.13;;;;;;;19.08;73.29;94324.34;5118288;28;20211;-67
2023/07/02 06:15:01;;;;;;;8.80;6.95;;;;;;;19.06;73.44;94315.59;5117212;28;20199;-66
2023/07/02 06:17:30;;;;;;;9.30;7.45;;;;;;;19.06;73.37;94308.00;5116786;28;20192;-66
2023/07/02 06:19:57;;;;;;;10.13;7.60;;;;;;;19.07;73.53;94303.22;5117110;28;20195;-66
2023/07/02 06:22:25;;;;;;;8.98;7.65;;;;;;;19.08;73.73;94308.38;5117599;28;20685;-65
2023/07/02 06:24:53;;;;;;;8.98;7.07;;;;;;;19.12;74.59;94303.50;5116738;28;20199;-66
2023/07/02 06:27:22;;;;;;;8.77;6.88;;;;;;;19.14;74.21;94309.47;5116931;28;20198;-66
2023/07/02 06:29:51;;;;;;;10.18;7.13;;;;;;;19.17;74.85;94319.81;5117818;27;20195;-66
2023/07/02 06:32:21;;;;;;;10.27;7.28;;;;;;;19.19;75.22;94308.97;5117820;28;20207;-66
2023/07/02 06:34:48;;;;;;;9.55;7.65;;;;;;;19.23;74.93;94304.09;5117778;28;20217;-66
2023/07/02 06:37:15;;;;;;;9.63;7.22;;;;;;;19.27;73.62;94306.84;5117646;28;20184;-69
2023/07/02 06:39:43;;;;;;;9.65;7.60;;;;;;;19.32;73.75;94309.16;5116825;28;20200;-66
2023/07/02 06:42:11;;;;;;;9.48;7.28;;;;;;;19.38;73.71;94301.03;5117499;28;20268;-66
2023/07/02 06:44:39;;;;;;;9.57;7.25;;;;;;;19.41;73.39;94289.78;5117581;28;20192;-66
2023/07/02 06:47:08;;;;;;;9.77;7.22;;;;;;;19.41;73.19;94281.41;5117517;28;20243;-66
2023/07/02 06:49:39;;;;;;;7.13;5.90;;;;;;;19.49;72.90;94288.44;5116247;28;20575;-66
2023/07/02 06:52:07;;;;;;;6.53;5.72;;;;;;;19.54;72.65;94287.16;5117363;28;20184;-66
2023/07/02 06:54:36;;;;;;;8.00;6.57;;;;;;;19.58;72.96;94287.09;5116645;28;20202;-66
2023/07/02 06:57:04;;;;;;;7.93;6.18;;;;;;;19.63;73.81;94292.19;5116473;28;20195;-65
2023/07/02 06:59:31;;;;;;;8.20;6.70;;;;;;;19.67;74.08;94296.50;5117268;28;20192;-65
2023/07/02 07:01:58;;;;;;;8.77;5.85;;;;;;;19.69;74.02;94296.88;5117102;28;20210;-65
2023/07/02 07:04:27;;;;;;;8.98;6.32;;;;;;;19.74;73.95;94300.38;5117149;28;20199;-65
2023/07/02 07:06:57;;;;;;;11.68;9.10;;;;;;;19.72;73.77;94303.63;5116408;28;20294;-65
2023/07/02 07:09:25;;;;;;;10.82;8.63;;;;;;;19.71;73.49;94305.59;5116524;28;20196;-66
2023/07/02 07:11:52;;;;;;;11.52;9.30;;;;;;;19.74;73.77;94306.75;5117071;28;20203;-65
2023/07/02 07:14:21;;;;;;;11.30;8.02;;;;;;;19.77;74.12;94299.53;5116044;28;20257;-65
2023/07/02 07:16:49;;;;;;;12.27;8.98;;;;;;;19.82;74.40;94296.22;5098814;28;20203;-66
2023/07/02 07:19:17;;;;;;;12.25;8.82;;;;;;;19.88;74.50;94288.91;5116863;28;20200;-65
2023/07/02 07:21:44;;;;;;;11.52;8.68;;;;;;;19.92;74.21;94289.59;5116507;28;20234;-65
2023/07/02 07:24:14;;;;;;;9.80;8.10;;;;;;;19.93;73.91;94294.78;5115867;28;20223;-71
2023/07/02 07:26:42;;;;;;;10.80;7.78;;;;;;;19.93;73.72;94300.38;5116357;28;20195;-75
2023/07/02 07:29:11;;;;;;;8.60;7.45;;;;;;;19.96;74.02;94304.31;5116409;28;20176;-75
2023/07/02 07:31:39;;;;;;;10.40;7.63;;;;;;;20.01;74.04;94303.00;5116353;28;20184;-73
2023/07/02 07:34:08;;;;;;;11.07;7.80;;;;;;;20.01;73.79;94298.22;5116517;28;20604;-73
2023/07/02 07:36:40;;;;;;;9.40;7.40;;;;;;;20.04;73.22;94285.34;5115903;28;20195;-76
2023/07/02 07:39:08;;;;;;;10.02;8.50;;;;;;;20.04;72.63;94294.53;5115685;28;20206;-72
2023/07/02 07:41:38;;;;;;;8.77;7.68;;;;;;;20.08;72.99;94286.88;5115991;28;20208;-71
2023/07/02 07:44:07;;;;;;;10.95;8.48;;;;;;;20.12;73.54;94281.19;5115058;28;20203;-71
2023/07/02 07:46:35;;;;;;;11.93;7.93;;;;;;;20.15;73.17;94281.13;5115734;28;20269;-71
2023/07/02 07:49:03;;;;;;;9.90;6.75;;;;;;;20.18;72.22;94288.63;5115210;28;20223;-71
2023/07/02 07:51:30;;;;;;;10.48;8.25;;;;;;;20.22;72.25;94296.94;5115202;28;20203;-71
2023/07/02 07:53:57;;;;;;;10.98;7.95;;;;;;;20.26;72.22;94292.06;5114987;28;20200;-71
2023/07/02 07:56:25;;;;;;;9.15;7.38;;;;;;;20.32;71.99;94287.50;5115120;28;20191;-71
2023/07/02 07:58:55;;;;;;;9.15;6.75;;;;;;;20.38;71.74;94297.00;5115319;28;20222;-71
2023/07/02 08:01:24;;;;;;;9.02;7.07;;;;;;;20.44;71.88;94295.25;5116388;28;20198;-71
2023/07/02 08:03:52;;;;;;;8.60;6.93;;;;;;;20.53;72.28;94293.88;5115176;28;20192;-71
2023/07/02 08:06:20;;;;;;;8.15;6.78;;;;;;;20.61;72.52;94295.28;5115773;28;20203;-71
2023/07/02 08:08:48;;;;;;;10.25;7.18;;;;;;;20.65;72.25;94298.78;5114997;28;20235;-70
2023/07/02 08:11:16;;;;;;;7.93;6.63;;;;;;;20.70;71.82;94294.66;5115187;28;20192;-70
2023/07/02 08:13:45;;;;;;;10.20;6.88;;;;;;;20.75;71.55;94291.38;5115261;28;20263;-70
2023/07/02 08:16:37;;;;;;;9.23;7.85;;;;;;;20.79;71.39;94292.06;5114689;28;20212;-70
2023/07/02 08:19:05;;;;;;;9.05;7.10;;;;;;;20.82;72.87;94288.38;5115346;28;20238;-70
2023/07/02 08:21:33;;;;;;;8.85;7.05;;;;;;;20.83;72.72;94289.94;5115530;28;20192;-69
2023/07/02 08:24:00;;;;;;;8.98;6.63;;;;;;;20.89;72.88;94288.22;5114701;28;20203;-69
2023/07/02 08:26:28;;;;;;;7.18;5.50;;;;;;;20.96;72.06;94284.44;5114942;28;20199;-69
2023/07/02 08:28:57;;;;;;;10.07;7.15;;;;;;;21.04;72.84;94281.00;5115811;28;20187;-70
2023/07/02 08:31:27;;;;;;;8.48;6.75;;;;;;;21.13;72.60;94280.38;5115682;28;20241;-70
2023/07/02 08:33:53;;;;;;;8.50;6.65;;;;;;;21.21;72.92;94276.19;5115805;28;20253;-70
2023/07/02 08:36:24;;;;;;;7.55;5.93;;;;;;;21.31;71.73;94274.28;5114792;28;20198;-70
2023/07/02 08:38:52;;;;;;;8.93;6.78;;;;;;;21.43;72.78;94275.63;5116388;28;20211;-71
2023/07/02 08:41:23;;;;;;;10.75;7.22;;;;;;;21.53;71.73;94272.53;5119064;28;20191;-71
2023/07/02 08:43:55;;;;;;;8.20;6.35;;;;;;;21.58;69.16;94276.81;5118942;28;20307;-71
2023/07/02 08:46:24;;;;;;;7.50;5.78;;;;;;;21.63;70.07;94274.22;5119075;28;20643;-71
2023/07/02 08:48:54;;;;;;;7.93;6.20;;;;;;;21.75;70.32;94272.72;5119598;28;20187;-71
2023/07/02 08:51:25;;;;;;;9.15;6.38;;;;;;;21.82;69.32;94277.31;5119136;28;20195;-71
2023/07/02 08:53:52;;;;;;;9.68;6.63;;;;;;;21.88;68.99;94278.34;5119396;28;20284;-71
2023/07/02 08:56:18;;;;;;;7.88;6.53;;;;;;;21.95;68.78;94272.53;5118462;28;20261;-71
2023/07/02 08:58:47;;;;;;;6.95;6.03;;;;;;;22.03;69.44;94273.09;5119653;28;20202;-71
2023/07/02 09:01:15;;;;;;;6.82;6.13;;;;;;;22.16;69.54;94273.16;5118775;28;20192;-71
2023/07/02 09:03:43;;;;;;;9.13;6.20;;;;;;;22.17;68.46;94271.94;5118471;28;20222;-71
2023/07/02 09:06:12;;;;;;;8.30;6.70;;;;;;;22.20;68.27;94271.03;5119180;28;20176;-71
2023/07/02 09:08:40;;;;;;;6.43;5.82;;;;;;;22.28;68.01;94263.97;5118380;28;20210;-71
2023/07/02 09:11:09;;;;;;;8.23;6.43;;;;;;;22.42;69.72;94263.53;5118568;28;20199;-71
2023/07/02 09:13:52;;;;;;;6.88;5.60;;;;;;;22.47;67.65;94260.13;5119119;28;20203;-75
2023/07/02 09:16:28;;;;;;;7.57;6.15;;;;;;;22.51;67.70;94265.66;5118403;28;20237;-71
2023/07/02 09:18:58;;;;;;;8.85;6.10;;;;;;;22.49;66.79;94262.50;5119329;28;20260;-71
2023/07/02 09:21:29;;;;;;;6.95;6.25;;;;;;;22.45;66.09;94262.63;5118798;28;20199;-71
2023/07/02 09:23:57;;;;;;;7.07;6.38;;;;;;;22.38;65.99;94259.25;5119114;28;20208;-71
2023/07/02 09:26:24;;;;;;;7.50;6.13;;;;;;;22.33;66.44;94261.41;5118794;28;20196;-71
2023/07/02 09:28:51;;;;;;;6.63;5.95;;;;;;;22.27;66.48;94259.59;5118179;28;20206;-72
2023/07/02 09:31:19;;;;;;;8.65;5.88;;;;;;;22.22;66.17;94262.94;5119006;28;20210;-72
2023/07/02 09:33:47;;;;;;;7.40;6.32;;;;;;;22.20;65.95;94271.03;5118025;28;20196;-71
2023/07/02 09:36:14;;;;;;;7.15;5.90;;;;;;;22.20;65.83;94268.22;5118722;28;20207;-71
2023/07/02 09:38:43;;;;;;;7.35;6.07;;;;;;;22.26;65.70;94263.63;5118067;28;20242;-71
2023/07/02 09:41:11;;;;;;;7.80;5.72;;;;;;;22.45;65.40;94262.63;5118074;28;20276;-71
2023/07/02 09:43:39;;;;;;;6.35;5.75;;;;;;;22.55;65.26;94261.50;5118765;28;20223;-71
2023/07/02 09:46:07;;;;;;;5.68;5.18;;;;;;;22.67;65.38;94261.94;5117823;28;20203;-71
2023/07/02 09:48:36;;;;;;;7.22;5.97;;;;;;;22.89;66.34;94260.00;5117239;28;20292;-71
2023/07/02 09:51:05;;;;;;;6.97;6.28;;;;;;;22.92;64.75;94261.16;5116958;28;20199;-71
2023/07/02 09:53:33;;;;;;;7.18;6.40;;;;;;;22.87;64.15;94259.66;5117402;28;20257;-71
2023/07/02 09:56:04;;;;;;;7.53;6.28;;;;;;;22.82;63.39;94258.22;5117648;28;20199;-71
2023/07/02 09:58:32;;;;;;;7.38;6.18;;;;;;;22.80;64.58;94251.47;5117289;28;20204;-72
2023/07/02 10:01:00;;;;;;;8.10;6.30;;;;;;;22.90;64.82;94261.56;5117626;28;20199;-72
2023/07/02 10:03:32;;;;;;;7.10;6.30;;;;;;;22.99;65.45;94261.72;5118293;28;20203;-72
2023/07/02 10:06:07;;;;;;;5.90;5.30;;;;;;;23.12;63.50;94249.63;5118277;28;20187;-71
2023/07/02 10:08:34;;;;;;;7.40;5.72;;;;;;;23.24;64.37;94251.63;5117379;28;20195;-71
2023/07/02 10:11:14;;;;;;;6.68;5.90;;;;;;;23.25;63.35;94247.56;5117213;28;20200;-71
2023/07/02 10:13:42;;;;;;;5.90;5.40;;;;;;;23.28;63.99;94241.81;5118251;27;20190;-71
2023/07/02 10:16:10;;;;;;;6.10;5.05;;;;;;;23.38;62.35;94251.13;5117081;28;20192;-71
2023/07/02 10:18:40;;;;;;;6.80;5.60;;;;;;;23.45;61.78;94236.00;5117802;28;20192;-71
2023/07/02 10:21:18;;;;;;;7.72;5.22;;;;;;;23.59;62.07;94229.88;5118056;28;20274;-71
2023/07/02 10:23:46;;;;;;;5.72;5.13;;;;;;;23.70;59.98;94216.22;5116873;28;20223;-71
2023/07/02 10:26:17;;;;;;;6.75;5.10;;;;;;;23.75;60.41;94210.00;5116920;28;20203;-71
2023/07/02 10:28:44;;;;;;;6.45;5.40;;;;;;;23.84;59.83;94211.31;5117869;28;20191;-71
2023/07/02 10:31:21;;;;;;;6.65;5.40;;;;;;;23.91;59.83;94216.66;5115284;28;20203;-71
2023/07/02 10:33:50;;;;;;;4.18;3.78;;;;;;;24.03;52.07;94222.19;5116989;28;20196;-71
2023/07/02 10:36:22;;;;;;;4.13;3.50;;;;;;;24.11;48.60;94219.13;5116811;28;20226;-71
2023/07/02 10:38:51;;;;;;;3.75;3.45;;;;;;;24.14;48.50;94223.81;5117712;28;20234;-71
2023/07/02 10:41:30;;;;;;;4.13;3.72;;;;;;;24.29;49.02;94224.84;5117297;28;20245;-71
2023/07/02 10:44:08;;;;;;;4.65;4.25;;;;;;;24.44;47.66;94236.38;5115994;28;20219;-71
2023/07/02 10:46:44;;;;;;;4.40;4.00;;;;;;;24.48;50.75;94220.13;5116808;28;20248;-71
2023/07/02 10:49:11;;;;;;;3.75;3.45;;;;;;;24.54;50.42;94225.91;5116789;28;20211;-71
2023/07/02 10:51:42;;;;;;;4.80;3.83;;;;;;;24.54;52.37;94220.28;5116738;28;20203;-71
2023/07/02 10:54:11;;;;;;;4.50;4.07;;;;;;;24.57;49.44;94217.31;5117363;28;20271;-71
2023/07/02 10:56:44;;;;;;;5.10;3.85;;;;;;;24.43;50.74;94215.84;5117271;28;20206;-71
2023/07/02 10:59:12;;;;;;;7.32;4.22;;;;;;;24.27;52.31;94213.25;5116010;28;20221;-71
2023/07/02 11:01:38;;;;;;;4.97;4.43;;;;;;;24.31;53.20;94208.25;5117051;28;20264;-69
2023/07/02 11:04:09;;;;;;;5.30;4.78;;;;;;;24.46;47.49;94214.94;5116995;28;20282;-69
2023/07/02 11:06:38;;;;;;;5.78;4.50;;;;;;;24.55;48.35;94214.19;5117138;28;20207;-68
2023/07/02 11:09:17;;;;;;;5.00;4.60;;;;;;;24.75;46.74;94210.94;5116763;28;20611;-68
2023/07/02 11:11:53;;;;;;;5.22;4.72;;;;;;;24.80;47.34;94206.72;5116816;28;20180;-69
2023/07/02 11:14:30;;;;;;;6.93;5.20;;;;;;;24.68;47.70;94211.25;5115990;28;20203;-70
2023/07/02 11:17:02;;;;;;;4.90;4.40;;;;;;;24.55;50.22;94210.56;5116511;28;20199;-71
2023/07/02 11:19:28;;;;;;;4.90;4.50;;;;;;;24.49;51.47;94210.41;5115635;28;20260;-71
2023/07/02 11:21:57;;;;;;;5.30;4.80;;;;;;;24.38;52.90;94224.91;5116822;28;20236;-71
2023/07/02 11:24:30;;;;;;;4.95;4.25;;;;;;;24.27;54.33;94230.94;5116614;28;20257;-73
2023/07/02 11:26:59;;;;;;;5.90;5.18;;;;;;;24.13;55.42;94225.88;5116650;28;20252;-73
2023/07/02 11:29:26;;;;;;;5.93;4.30;;;;;;;24.03;56.27;94238.31;5114809;28;20219;-73
2023/07/02 11:31:53;;;;;;;5.85;4.65;;;;;;;23.99;57.96;94230.00;5115769;28;20200;-73
2023/07/02 11:34:23;;;;;;;5.10;4.60;;;;;;;23.94;57.15;94233.44;5116321;28;20206;-73
2023/07/02 11:36:53;;;;;;;6.05;4.75;;;;;;;23.89;59.62;94242.47;5116554;28;20199;-72
2023/07/02 11:39:21;;;;;;;4.00;3.60;;;;;;;23.82;58.31;94244.75;5115281;28;20670;-73